createdAt,value
2017-10-10T00:01:06.722Z,20.799999999999997
2017-10-10T00:03:06.768Z,21.299999999999997
2017-10-10T00:05:07.104Z,20.799999999999997
2017-10-10T00:07:07.088Z,20.799999999999997
2017-10-10T00:09:07.379Z,20.799999999999997
2017-10-10T00:11:07.446Z,20.799999999999997
2017-10-10T00:13:07.588Z,20.799999999999997
2017-10-10T00:15:07.708Z,20.799999999999997
2017-10-10T00:17:07.945Z,20.799999999999997
2017-10-10T00:19:08.123Z,20.799999999999997
2017-10-10T00:21:08.264Z,20.799999999999997
2017-10-10T00:23:08.466Z,20.799999999999997
2017-10-10T00:25:08.562Z,19.700000000000003
2017-10-10T00:27:08.713Z,21.299999999999997
2017-10-10T00:29:08.882Z,21.299999999999997
2017-10-10T00:31:08.976Z,20.799999999999997
2017-10-10T00:33:09.108Z,20.799999999999997
2017-10-10T00:35:09.314Z,21.299999999999997
2017-10-10T00:37:09.407Z,20.799999999999997
2017-10-10T00:39:09.627Z,21.299999999999997
2017-10-10T00:41:09.821Z,20.799999999999997
2017-10-10T00:43:09.801Z,20.799999999999997
2017-10-10T00:45:09.975Z,21.299999999999997
2017-10-10T00:47:10.087Z,20.799999999999997
2017-10-10T00:49:10.258Z,20.799999999999997
2017-10-10T00:51:10.380Z,20.799999999999997
2017-10-10T00:53:10.610Z,20.799999999999997
2017-10-10T00:55:10.615Z,20.799999999999997
2017-10-10T00:57:10.779Z,20.799999999999997
2017-10-10T00:59:10.946Z,20.799999999999997
2017-10-10T01:01:11.023Z,20.799999999999997
2017-10-10T01:03:11.169Z,20.799999999999997
2017-10-10T01:05:11.309Z,20.799999999999997
2017-10-10T01:07:11.397Z,20.799999999999997
2017-10-10T01:09:11.488Z,20.799999999999997
2017-10-10T01:11:11.704Z,20.799999999999997
2017-10-10T01:13:11.779Z,20.200000000000003
2017-10-10T01:15:11.898Z,20.799999999999997
2017-10-10T01:17:12.066Z,20.799999999999997
2017-10-10T01:19:12.379Z,20.799999999999997
2017-10-10T01:21:12.265Z,20.799999999999997
2017-10-10T01:23:12.436Z,20.799999999999997
2017-10-10T01:25:12.664Z,20.799999999999997
2017-10-10T01:27:12.814Z,20.799999999999997
2017-10-10T01:29:12.875Z,20.799999999999997
2017-10-10T01:31:12.978Z,20.799999999999997
2017-10-10T01:33:13.119Z,20.799999999999997
2017-10-10T01:35:13.319Z,20.799999999999997
2017-10-10T01:37:13.415Z,20.799999999999997
2017-10-10T01:39:13.504Z,20.200000000000003
2017-10-10T01:41:13.635Z,20.799999999999997
2017-10-10T01:43:13.747Z,20.799999999999997
2017-10-10T01:45:13.938Z,20.799999999999997
2017-10-10T01:47:14.036Z,20.799999999999997
2017-10-10T01:49:14.351Z,20.799999999999997
2017-10-10T01:51:14.535Z,20.799999999999997
2017-10-10T01:53:14.664Z,20.200000000000003
2017-10-10T01:55:14.831Z,20.799999999999997
2017-10-10T01:57:14.890Z,20.799999999999997
2017-10-10T01:59:15.039Z,20.799999999999997
2017-10-10T02:01:15.228Z,20.799999999999997
2017-10-10T02:03:15.335Z,20.799999999999997
2017-10-10T02:05:16.306Z,20.799999999999997
2017-10-10T02:07:15.742Z,20.799999999999997
2017-10-10T02:09:15.896Z,20.799999999999997
2017-10-10T02:11:16.012Z,20.799999999999997
2017-10-10T02:13:16.141Z,20.200000000000003
2017-10-10T02:15:16.301Z,20.799999999999997
2017-10-10T02:17:16.425Z,20.200000000000003
2017-10-10T02:19:16.534Z,20.799999999999997
2017-10-10T02:21:16.772Z,20.799999999999997
2017-10-10T02:23:17.013Z,20.799999999999997
2017-10-10T02:25:17.085Z,20.200000000000003
2017-10-10T02:27:17.218Z,20.799999999999997
2017-10-10T02:29:17.374Z,20.799999999999997
2017-10-10T02:31:17.411Z,20.799999999999997
2017-10-10T02:33:17.705Z,20.799999999999997
2017-10-10T02:35:17.784Z,20.799999999999997
2017-10-10T02:37:17.890Z,20.799999999999997
2017-10-10T02:39:18.049Z,20.799999999999997
2017-10-10T02:41:18.116Z,20.799999999999997
2017-10-10T02:43:18.361Z,19.700000000000003
2017-10-10T02:45:18.448Z,20.799999999999997
2017-10-10T02:47:18.614Z,19.700000000000003
2017-10-10T02:49:18.724Z,19.700000000000003
2017-10-10T02:51:18.827Z,20.200000000000003
2017-10-10T02:53:18.916Z,20.799999999999997
2017-10-10T02:55:19.121Z,20.799999999999997
2017-10-10T02:57:19.319Z,20.799999999999997
2017-10-10T02:59:19.410Z,20.799999999999997
2017-10-10T03:01:21.138Z,20.200000000000003
2017-10-10T03:03:19.677Z,20.799999999999997
2017-10-10T03:05:19.777Z,20.799999999999997
2017-10-10T03:07:19.907Z,20.799999999999997
2017-10-10T03:09:20.039Z,20.799999999999997
2017-10-10T03:11:20.304Z,20.799999999999997
2017-10-10T03:13:20.412Z,19.700000000000003
2017-10-10T03:15:20.536Z,20.799999999999997
2017-10-10T03:17:20.595Z,20.200000000000003
2017-10-10T03:19:20.721Z,20.200000000000003
2017-10-10T03:21:20.864Z,20.799999999999997
2017-10-10T03:23:21.005Z,20.799999999999997
2017-10-10T03:25:21.105Z,20.200000000000003
2017-10-10T03:27:21.242Z,20.799999999999997
2017-10-10T03:29:21.352Z,20.200000000000003
2017-10-10T03:31:21.744Z,20.200000000000003
2017-10-10T03:33:21.587Z,20.799999999999997
2017-10-10T03:35:21.752Z,19.700000000000003
2017-10-10T03:37:21.823Z,19.700000000000003
2017-10-10T03:39:21.923Z,19.700000000000003
2017-10-10T03:41:22.061Z,19.700000000000003
2017-10-10T03:43:22.361Z,20.200000000000003
2017-10-10T03:45:22.280Z,20.200000000000003
2017-10-10T03:47:22.423Z,20.799999999999997
2017-10-10T03:49:22.576Z,20.799999999999997
2017-10-10T03:51:22.668Z,20.799999999999997
2017-10-10T03:53:22.755Z,20.200000000000003
2017-10-10T03:55:22.935Z,20.799999999999997
2017-10-10T03:57:23.038Z,20.799999999999997
2017-10-10T03:59:23.192Z,20.200000000000003
2017-10-10T04:01:23.283Z,20.200000000000003
2017-10-10T04:03:23.509Z,19.700000000000003
2017-10-10T04:05:23.518Z,20.799999999999997
2017-10-10T04:07:23.692Z,20.799999999999997
2017-10-10T04:09:23.806Z,20.200000000000003
2017-10-10T04:11:23.978Z,20.200000000000003
2017-10-10T04:13:24.079Z,20.200000000000003
2017-10-10T04:15:24.219Z,20.200000000000003
2017-10-10T04:17:24.360Z,20.799999999999997
2017-10-10T04:19:24.486Z,19.700000000000003
2017-10-10T04:21:24.676Z,20.200000000000003
2017-10-10T04:23:24.764Z,20.200000000000003
2017-10-10T04:25:24.888Z,20.200000000000003
2017-10-10T04:27:24.993Z,20.200000000000003
2017-10-10T04:29:25.170Z,20.200000000000003
2017-10-10T04:31:25.303Z,20.799999999999997
2017-10-10T04:33:25.437Z,20.200000000000003
2017-10-10T04:35:25.545Z,20.200000000000003
2017-10-10T04:37:25.712Z,19.700000000000003
2017-10-10T04:39:25.810Z,19.700000000000003
2017-10-10T04:41:25.946Z,19.700000000000003
2017-10-10T04:43:26.262Z,19.700000000000003
2017-10-10T04:45:26.319Z,19.700000000000003
2017-10-10T04:47:26.531Z,19.700000000000003
2017-10-10T04:49:26.590Z,19.700000000000003
2017-10-10T04:51:26.746Z,20.200000000000003
2017-10-10T04:53:26.894Z,19.700000000000003
2017-10-10T04:55:27.161Z,20.200000000000003
2017-10-10T04:57:27.296Z,20.200000000000003
2017-10-10T04:59:27.433Z,20.200000000000003
2017-10-10T05:01:27.664Z,20.200000000000003
2017-10-10T05:03:27.791Z,20.200000000000003
2017-10-10T05:05:27.924Z,20.200000000000003
2017-10-10T05:07:28.049Z,20.200000000000003
2017-10-10T05:09:28.163Z,19.700000000000003
2017-10-10T05:11:28.353Z,19.700000000000003
2017-10-10T05:13:29.057Z,19.700000000000003
2017-10-10T05:15:28.715Z,19.700000000000003
2017-10-10T05:17:28.870Z,19.700000000000003
2017-10-10T05:19:29.063Z,20.799999999999997
2017-10-10T05:21:29.204Z,20.799999999999997
2017-10-10T05:23:29.299Z,20.200000000000003
2017-10-10T05:25:29.582Z,20.799999999999997
2017-10-10T05:27:29.625Z,19.700000000000003
2017-10-10T05:29:29.775Z,20.200000000000003
2017-10-10T05:31:29.851Z,20.200000000000003
2017-10-10T05:33:29.999Z,19.700000000000003
2017-10-10T05:35:30.200Z,19.700000000000003
2017-10-10T05:37:30.324Z,19.700000000000003
2017-10-10T05:39:30.388Z,20.200000000000003
2017-10-10T05:41:30.557Z,19.700000000000003
2017-10-10T05:43:30.692Z,20.200000000000003
2017-10-10T05:45:30.920Z,19.700000000000003
2017-10-10T05:47:30.903Z,19.700000000000003
2017-10-10T05:49:31.113Z,19.700000000000003
2017-10-10T05:51:31.394Z,19.700000000000003
2017-10-10T05:53:31.497Z,20.200000000000003
2017-10-10T05:55:31.695Z,20.799999999999997
2017-10-10T05:57:31.801Z,20.200000000000003
2017-10-10T05:59:31.916Z,20.799999999999997
2017-10-10T06:01:32.067Z,20.200000000000003
2017-10-10T06:03:32.203Z,20.799999999999997
2017-10-10T06:05:32.382Z,20.799999999999997
2017-10-10T06:07:32.760Z,20.799999999999997
2017-10-10T06:09:32.655Z,20.200000000000003
2017-10-10T06:11:32.776Z,20.799999999999997
2017-10-10T06:13:32.939Z,20.799999999999997
2017-10-10T06:15:33.073Z,20.200000000000003
2017-10-10T06:17:33.229Z,20.799999999999997
2017-10-10T06:19:33.307Z,19.700000000000003
2017-10-10T06:21:33.431Z,19.700000000000003
2017-10-10T06:23:33.527Z,19.700000000000003
2017-10-10T06:25:33.640Z,20.200000000000003
2017-10-10T06:27:33.792Z,19.700000000000003
2017-10-10T06:29:34.055Z,19.700000000000003
2017-10-10T06:31:34.203Z,19.700000000000003
2017-10-10T06:33:34.261Z,20.200000000000003
2017-10-10T06:35:34.429Z,19.700000000000003
2017-10-10T06:37:34.572Z,20.200000000000003
2017-10-10T06:39:34.670Z,20.799999999999997
2017-10-10T06:41:34.805Z,20.799999999999997
2017-10-10T06:43:34.941Z,20.799999999999997
2017-10-10T06:45:35.076Z,20.799999999999997
2017-10-10T06:47:35.271Z,20.799999999999997
2017-10-10T06:49:35.390Z,20.799999999999997
2017-10-10T06:51:35.492Z,20.799999999999997
2017-10-10T06:53:35.582Z,20.799999999999997
2017-10-10T06:55:35.758Z,20.799999999999997
2017-10-10T06:57:35.834Z,20.799999999999997
2017-10-10T06:59:35.965Z,20.799999999999997
2017-10-10T07:01:36.111Z,20.799999999999997
2017-10-10T07:03:36.214Z,21.299999999999997
2017-10-10T07:05:36.367Z,20.200000000000003
2017-10-10T07:07:36.659Z,20.799999999999997
2017-10-10T07:09:36.703Z,21.299999999999997
2017-10-10T07:11:36.815Z,21.299999999999997
2017-10-10T07:13:37.116Z,21.299999999999997
2017-10-10T07:15:37.147Z,21.9
2017-10-10T07:17:37.310Z,21.299999999999997
2017-10-10T07:19:37.444Z,21.299999999999997
2017-10-10T07:21:37.538Z,20.799999999999997
2017-10-10T07:23:37.746Z,21.299999999999997
2017-10-10T07:25:37.853Z,21.299999999999997
2017-10-10T07:27:38.037Z,20.799999999999997
2017-10-10T07:29:38.180Z,21.299999999999997
2017-10-10T07:31:38.335Z,21.299999999999997
2017-10-10T07:33:38.426Z,21.9
2017-10-10T07:35:38.561Z,21.299999999999997
2017-10-10T07:37:38.627Z,21.299999999999997
2017-10-10T07:39:38.776Z,20.799999999999997
2017-10-10T07:41:39.077Z,21.299999999999997
2017-10-10T07:43:39.203Z,21.9
2017-10-10T07:45:39.380Z,21.9
2017-10-10T07:47:39.472Z,21.9
2017-10-10T07:49:39.620Z,21.9
2017-10-10T07:51:39.683Z,21.9
2017-10-10T07:53:39.833Z,21.9
2017-10-10T07:55:40.017Z,21.299999999999997
2017-10-10T07:57:40.117Z,21.9
2017-10-10T07:59:40.501Z,21.9
2017-10-10T08:01:40.396Z,21.9
2017-10-10T08:03:40.402Z,22.4
2017-10-10T08:05:40.567Z,21.9
2017-10-10T08:07:40.675Z,22.9
2017-10-10T08:09:40.957Z,22.9
2017-10-10T08:11:40.926Z,22.9
2017-10-10T08:13:41.072Z,22.9
2017-10-10T08:15:41.191Z,22.9
2017-10-10T08:17:41.329Z,22.4
2017-10-10T08:19:41.496Z,22.9
2017-10-10T08:21:41.644Z,22.4
2017-10-10T08:23:41.654Z,22.9
2017-10-10T08:25:41.823Z,22.9
2017-10-10T08:27:42.067Z,22.9
2017-10-10T08:29:42.206Z,22.9
2017-10-10T08:31:42.304Z,22.9
2017-10-10T08:33:43.411Z,22.9
2017-10-10T08:35:42.741Z,22.9
2017-10-10T08:37:42.837Z,22.9
2017-10-10T08:39:43.005Z,22.9
2017-10-10T08:41:43.132Z,22.9
2017-10-10T08:43:43.251Z,22.9
2017-10-10T08:45:43.407Z,22.9
2017-10-10T08:47:43.540Z,22.4
2017-10-10T08:49:43.689Z,22.9
2017-10-10T08:51:43.841Z,22.9
2017-10-10T08:53:43.942Z,22.4
2017-10-10T08:55:44.124Z,22.9
2017-10-10T08:57:44.204Z,22.9
2017-10-10T08:59:44.321Z,22.9
2017-10-10T09:01:44.549Z,22.9
2017-10-10T09:03:44.649Z,23.5
2017-10-10T09:05:44.765Z,22.9
2017-10-10T09:07:44.969Z,22.4
2017-10-10T09:09:45.110Z,22.9
2017-10-10T09:11:45.232Z,22.9
2017-10-10T09:13:45.387Z,23.5
2017-10-10T09:15:45.613Z,23.5
2017-10-10T09:17:45.610Z,23.5
2017-10-10T09:19:45.723Z,23.5
2017-10-10T09:21:45.839Z,24
2017-10-10T09:23:45.942Z,22.9
2017-10-10T09:25:46.264Z,22.9
2017-10-10T09:27:46.284Z,23.5
2017-10-10T09:29:46.335Z,23.5
2017-10-10T09:31:46.632Z,24
2017-10-10T09:33:46.799Z,23.5
2017-10-10T09:35:46.863Z,23.5
2017-10-10T09:37:47.064Z,23.5
2017-10-10T09:39:47.104Z,23.5
2017-10-10T09:41:47.273Z,23.5
2017-10-10T09:43:47.423Z,23.5
2017-10-10T09:45:47.518Z,22.9
2017-10-10T09:47:47.763Z,22.9
2017-10-10T09:49:47.814Z,23.5
2017-10-10T09:51:47.966Z,24
2017-10-10T09:53:48.161Z,23.5
2017-10-10T09:55:48.245Z,23.5
2017-10-10T09:57:48.429Z,24
2017-10-10T09:59:48.720Z,24
2017-10-10T10:01:48.667Z,23.5
2017-10-10T10:03:48.974Z,23.5
2017-10-10T10:05:48.964Z,23.5
2017-10-10T10:07:49.036Z,23.5
2017-10-10T10:09:49.152Z,23.5
2017-10-10T10:11:49.300Z,23.5
2017-10-10T10:13:49.437Z,24
2017-10-10T10:15:49.520Z,24
2017-10-10T10:17:49.664Z,24
2017-10-10T10:19:49.800Z,23.5
2017-10-10T10:21:49.895Z,24.5
2017-10-10T10:23:50.067Z,24
2017-10-10T10:25:50.155Z,24
2017-10-10T10:27:50.248Z,24
2017-10-10T10:29:50.413Z,24
2017-10-10T10:31:50.871Z,24
2017-10-10T10:33:50.644Z,24.5
2017-10-10T10:35:50.813Z,24
2017-10-10T10:37:50.940Z,24.5
2017-10-10T10:39:51.092Z,24
2017-10-10T10:41:51.200Z,24.5
2017-10-10T10:43:51.438Z,24.5
2017-10-10T10:45:51.483Z,24
2017-10-10T10:47:51.678Z,25.1
2017-10-10T10:49:51.744Z,24.5
2017-10-10T10:51:51.913Z,24.5
2017-10-10T10:53:52.015Z,24
2017-10-10T10:55:52.355Z,25.1
2017-10-10T10:57:52.415Z,24
2017-10-10T10:59:52.566Z,25.1
2017-10-10T11:01:52.710Z,24.5
2017-10-10T11:03:52.834Z,24
2017-10-10T11:05:52.972Z,24.5
2017-10-10T11:07:53.070Z,24.5
2017-10-10T11:09:53.215Z,25.1
2017-10-10T11:11:53.306Z,25.1
2017-10-10T11:13:53.435Z,24.5
2017-10-10T11:15:53.614Z,24
2017-10-10T11:17:53.728Z,25.1
2017-10-10T11:19:53.841Z,24
2017-10-10T11:21:53.994Z,25.1
2017-10-10T11:23:54.123Z,25.1
2017-10-10T11:25:54.222Z,25.1
2017-10-10T11:27:54.365Z,24.5
2017-10-10T11:29:54.502Z,24
2017-10-10T11:31:54.631Z,24.5
2017-10-10T11:33:54.774Z,25.1
2017-10-10T11:35:54.946Z,25.1
2017-10-10T11:37:55.048Z,24.5
2017-10-10T11:39:55.162Z,24
2017-10-10T11:41:55.313Z,24.5
2017-10-10T11:43:55.462Z,24.5
2017-10-10T11:45:55.494Z,24.5
2017-10-10T11:47:55.750Z,25.1
2017-10-10T11:49:55.801Z,25.1
2017-10-10T11:51:55.846Z,25.1
2017-10-10T11:53:56.036Z,25.1
2017-10-10T11:55:56.130Z,25.1
2017-10-10T11:57:56.255Z,25.1
2017-10-10T11:59:56.372Z,25.1
2017-10-10T12:01:56.525Z,25.1
2017-10-10T12:03:56.592Z,25.1
2017-10-10T12:05:56.850Z,25.1
2017-10-10T12:07:56.848Z,24.5
2017-10-10T12:09:57.005Z,24.5
2017-10-10T12:11:57.119Z,25.1
2017-10-10T12:13:57.211Z,25.1
2017-10-10T12:15:57.533Z,24.5
2017-10-10T12:17:57.587Z,25.1
2017-10-10T12:19:57.784Z,25.1
2017-10-10T12:21:57.954Z,25.1
2017-10-10T12:23:57.962Z,25.1
2017-10-10T12:25:58.074Z,25.6
2017-10-10T12:27:58.226Z,25.1
2017-10-10T12:29:58.720Z,25.1
2017-10-10T12:31:58.479Z,25.1
2017-10-10T12:33:58.595Z,25.1
2017-10-10T12:35:58.918Z,25.1
2017-10-10T12:37:58.985Z,25.1
2017-10-10T12:39:59.130Z,25.1
2017-10-10T12:41:59.301Z,25.1
2017-10-10T12:43:59.562Z,25.1
2017-10-10T12:45:59.537Z,25.1
2017-10-10T12:47:59.797Z,25.1
2017-10-10T12:49:59.914Z,25.1
2017-10-10T12:52:00.066Z,25.1
2017-10-10T12:54:00.185Z,25.1
2017-10-10T12:56:00.308Z,25.1
2017-10-10T12:58:00.426Z,25.1
2017-10-10T13:00:00.574Z,25.1
2017-10-10T13:02:00.694Z,25.6
2017-10-10T13:04:00.807Z,25.1
2017-10-10T13:06:00.932Z,25.1
2017-10-10T13:08:01.098Z,25.1
2017-10-10T13:10:01.339Z,25.1
2017-10-10T13:12:01.270Z,25.1
2017-10-10T13:14:01.414Z,25.1
2017-10-10T13:16:01.890Z,25.1
2017-10-10T13:18:02.060Z,25.6
2017-10-10T13:20:02.312Z,25.1
2017-10-10T13:22:02.405Z,25.1
2017-10-10T13:24:02.629Z,25.1
2017-10-10T13:26:02.801Z,25.1
2017-10-10T13:28:02.899Z,25.6
2017-10-10T13:30:03.046Z,25.1
2017-10-10T13:32:03.249Z,25.1
2017-10-10T13:34:03.375Z,25.1
2017-10-10T13:36:03.474Z,25.1
2017-10-10T13:38:03.750Z,25.1
2017-10-10T13:40:03.795Z,25.1
2017-10-10T13:42:03.933Z,25.1
2017-10-10T13:44:04.157Z,25.1
2017-10-10T13:46:04.349Z,24.5
2017-10-10T13:48:04.479Z,25.1
2017-10-10T13:50:04.672Z,25.1
2017-10-10T13:52:04.781Z,25.1
2017-10-10T13:54:04.942Z,25.1
2017-10-10T13:56:05.083Z,24.5
2017-10-10T13:58:05.277Z,25.1
2017-10-10T14:00:05.464Z,25.1
2017-10-10T14:02:05.744Z,25.1
2017-10-10T14:04:05.914Z,25.1
2017-10-10T14:06:05.972Z,25.1
2017-10-10T14:08:06.144Z,25.1
2017-10-10T14:10:06.265Z,25.1
2017-10-10T14:12:06.428Z,25.1
2017-10-10T14:14:06.601Z,25.1
2017-10-10T14:16:06.881Z,25.1
2017-10-10T14:18:06.838Z,25.1
2017-10-10T14:20:07.052Z,25.6
2017-10-10T14:22:07.310Z,25.1
2017-10-10T14:24:07.283Z,25.1
2017-10-10T14:26:07.440Z,25.1
2017-10-10T14:28:07.562Z,25.1
2017-10-10T14:30:07.709Z,25.1
2017-10-10T14:32:07.901Z,25.1
2017-10-10T14:34:08.109Z,25.6
2017-10-10T14:36:08.197Z,25.1
2017-10-10T14:38:08.323Z,25.1
2017-10-10T14:40:08.405Z,25.1
2017-10-10T14:42:08.530Z,25.1
2017-10-10T14:44:08.656Z,25.1
2017-10-10T14:46:08.840Z,25.1
2017-10-10T14:48:08.898Z,25.1
2017-10-10T14:50:09.049Z,25.1
2017-10-10T14:52:09.225Z,25.1
2017-10-10T14:54:09.501Z,25.1
2017-10-10T14:56:09.603Z,24.5
2017-10-10T14:58:09.770Z,25.1
2017-10-10T15:00:09.990Z,25.1
2017-10-10T15:02:10.063Z,25.1
2017-10-10T15:04:10.216Z,25.1
2017-10-10T15:06:10.362Z,25.1
2017-10-10T15:08:10.469Z,24.5
2017-10-10T15:10:10.603Z,25.1
2017-10-10T15:12:10.785Z,25.1
2017-10-10T15:14:10.871Z,25.1
2017-10-10T15:16:10.975Z,25.1
2017-10-10T15:18:11.097Z,25.1
2017-10-10T15:20:11.271Z,25.1
2017-10-10T15:22:11.398Z,25.1
2017-10-10T15:24:11.465Z,25.1
2017-10-10T15:26:11.599Z,24.5
2017-10-10T15:28:11.814Z,25.1
2017-10-10T15:30:11.838Z,25.1
2017-10-10T15:32:11.952Z,25.1
2017-10-10T15:34:12.097Z,25.1
2017-10-10T15:36:12.495Z,25.1
2017-10-10T15:38:12.457Z,25.1
2017-10-10T15:40:12.555Z,25.1
2017-10-10T15:42:12.720Z,25.1
2017-10-10T15:44:12.838Z,25.1
2017-10-10T15:46:12.990Z,25.1
2017-10-10T15:48:13.138Z,25.1
2017-10-10T15:50:13.268Z,25.1
2017-10-10T15:52:13.400Z,25.1
2017-10-10T15:54:13.570Z,25.1
2017-10-10T15:56:13.634Z,25.1
2017-10-10T15:58:13.749Z,25.1
2017-10-10T16:00:13.900Z,25.1
2017-10-10T16:02:14.011Z,24.5
2017-10-10T16:04:14.292Z,24.5
2017-10-10T16:06:14.380Z,25.1
2017-10-10T16:08:14.583Z,24.5
2017-10-10T16:10:14.657Z,24.5
2017-10-10T16:12:14.858Z,25.1
2017-10-10T16:14:15.045Z,25.1
2017-10-10T16:16:15.150Z,24
2017-10-10T16:18:15.284Z,25.1
2017-10-10T16:20:15.436Z,24.5
2017-10-10T16:22:15.561Z,24.5
2017-10-10T16:24:15.648Z,24.5
2017-10-10T16:26:15.809Z,24
2017-10-10T16:28:15.899Z,24
2017-10-10T16:30:16.033Z,24
2017-10-10T16:32:16.200Z,24.5
2017-10-10T16:34:16.287Z,24.5
2017-10-10T16:36:16.395Z,24
2017-10-10T16:38:16.540Z,24.5
2017-10-10T16:40:16.689Z,24
2017-10-10T16:42:16.832Z,24
2017-10-10T16:44:16.920Z,24
2017-10-10T16:46:17.031Z,24
2017-10-10T16:48:17.199Z,24
2017-10-10T16:50:17.340Z,24
2017-10-10T16:52:17.377Z,24
2017-10-10T16:54:17.618Z,24
2017-10-10T16:56:17.753Z,24
2017-10-10T16:58:17.922Z,24
2017-10-10T17:00:18.004Z,24
2017-10-10T17:02:18.174Z,22.9
2017-10-10T17:04:18.223Z,24
2017-10-10T17:06:18.369Z,24
2017-10-10T17:08:18.620Z,24
2017-10-10T17:10:18.665Z,22.9
2017-10-10T17:12:18.843Z,24
2017-10-10T17:14:18.977Z,24
2017-10-10T17:16:19.101Z,23.5
2017-10-10T17:18:19.281Z,24
2017-10-10T17:20:19.451Z,24
2017-10-10T17:22:19.481Z,24
2017-10-10T17:24:19.598Z,24.5
2017-10-10T17:26:19.714Z,24
2017-10-10T17:28:19.879Z,24
2017-10-10T17:30:20.026Z,24
2017-10-10T17:32:20.119Z,24
2017-10-10T17:34:20.382Z,24
2017-10-10T17:36:20.474Z,23.5
2017-10-10T17:38:20.654Z,23.5
2017-10-10T17:40:20.758Z,23.5
2017-10-10T17:42:20.856Z,23.5
2017-10-10T17:44:21.027Z,24
2017-10-10T17:46:21.232Z,23.5
2017-10-10T17:48:21.407Z,24
2017-10-10T17:50:21.648Z,23.5
2017-10-10T17:52:21.568Z,23.5
2017-10-10T17:54:21.883Z,23.5
2017-10-10T17:56:21.830Z,23.5
2017-10-10T17:58:21.941Z,23.5
2017-10-10T18:00:22.066Z,23.5
2017-10-10T18:02:22.249Z,24
2017-10-10T18:04:22.372Z,24
2017-10-10T18:06:22.527Z,22.9
2017-10-10T18:08:22.643Z,22.9
2017-10-10T18:10:22.840Z,24
2017-10-10T18:12:22.923Z,23.5
2017-10-10T18:14:23.352Z,22.9
2017-10-10T18:16:23.418Z,23.5
2017-10-10T18:18:23.445Z,22.9
2017-10-10T18:20:23.553Z,23.5
2017-10-10T18:22:23.722Z,22.9
2017-10-10T18:24:23.813Z,22.9
2017-10-10T18:26:23.928Z,22.9
2017-10-10T18:28:24.292Z,22.9
2017-10-10T18:30:24.274Z,22.9
2017-10-10T18:32:24.409Z,22.9
2017-10-10T18:34:24.768Z,22.9
2017-10-10T18:36:24.725Z,22.9
2017-10-10T18:38:25.025Z,22.9
2017-10-10T18:40:25.023Z,23.5
2017-10-10T18:42:25.153Z,23.5
2017-10-10T18:44:25.272Z,22.9
2017-10-10T18:46:25.447Z,22.9
2017-10-10T18:48:25.539Z,22.9
2017-10-10T18:50:25.727Z,23.5
2017-10-10T18:52:25.842Z,22.9
2017-10-10T18:54:26.008Z,23.5
2017-10-10T18:56:26.169Z,23.5
2017-10-10T18:58:26.282Z,22.9
2017-10-10T19:00:26.418Z,23.5
2017-10-10T19:02:26.742Z,22.9
2017-10-10T19:04:26.744Z,22.9
2017-10-10T19:06:26.871Z,22.9
2017-10-10T19:08:27.856Z,23.5
2017-10-10T19:10:27.182Z,23.5
2017-10-10T19:12:27.313Z,23.5
2017-10-10T19:14:27.435Z,22.9
2017-10-10T19:16:27.508Z,22.9
2017-10-10T19:18:27.830Z,22.9
2017-10-10T19:20:27.980Z,22.9
2017-10-10T19:22:27.935Z,22.9
2017-10-10T19:24:28.096Z,22.9
2017-10-10T19:26:28.196Z,22.9
2017-10-10T19:28:28.394Z,22.9
2017-10-10T19:30:28.510Z,23.5
2017-10-10T19:32:28.604Z,22.9
2017-10-10T19:34:28.727Z,23.5
2017-10-10T19:36:28.834Z,22.9
2017-10-10T19:38:29.093Z,22.9
2017-10-10T19:40:29.124Z,22.9
2017-10-10T19:42:29.311Z,22.9
2017-10-10T19:44:29.377Z,22.9
2017-10-10T19:46:29.579Z,22.4
2017-10-10T19:48:29.897Z,23.5
2017-10-10T19:50:29.961Z,22.9
2017-10-10T19:52:30.137Z,22.9
2017-10-10T19:54:30.217Z,22.9
2017-10-10T19:56:30.315Z,22.9
2017-10-10T19:58:30.475Z,22.9
2017-10-10T20:00:30.575Z,22.9
2017-10-10T20:02:30.699Z,22.4
2017-10-10T20:04:30.826Z,22.4
2017-10-10T20:06:30.952Z,22.9
2017-10-10T20:08:31.055Z,21.9
2017-10-10T20:10:31.182Z,22.4
2017-10-10T20:12:31.290Z,22.9
2017-10-10T20:14:31.530Z,22.4
2017-10-10T20:16:31.583Z,21.9
2017-10-10T20:18:31.687Z,21.9
2017-10-10T20:20:31.848Z,21.9
2017-10-10T20:22:31.937Z,21.9
2017-10-10T20:24:32.301Z,22.4
2017-10-10T20:26:32.379Z,21.9
2017-10-10T20:28:32.453Z,22.4
2017-10-10T20:30:32.560Z,21.9
2017-10-10T20:32:32.735Z,22.4
2017-10-10T20:34:32.850Z,21.9
2017-10-10T20:36:32.960Z,22.4
2017-10-10T20:38:33.064Z,21.9
2017-10-10T20:40:33.213Z,21.9
2017-10-10T20:42:33.512Z,22.9
2017-10-10T20:44:33.458Z,21.9
2017-10-10T20:46:33.576Z,22.4
2017-10-10T20:48:33.711Z,21.9
2017-10-10T20:50:33.839Z,21.9
2017-10-10T20:52:33.952Z,21.9
2017-10-10T20:54:34.410Z,22.4
2017-10-10T20:56:34.205Z,21.9
2017-10-10T20:58:34.311Z,21.9
2017-10-10T21:00:34.512Z,22.4
2017-10-10T21:02:34.634Z,21.9
2017-10-10T21:04:34.740Z,22.4
2017-10-10T21:06:34.853Z,21.9
2017-10-10T21:08:34.999Z,22.4
2017-10-10T21:10:35.150Z,21.9
2017-10-10T21:12:35.287Z,21.9
2017-10-10T21:14:35.517Z,22.9
2017-10-10T21:16:35.507Z,21.9
2017-10-10T21:18:35.634Z,21.9
2017-10-10T21:20:35.884Z,22.4
2017-10-10T21:22:35.949Z,21.9
2017-10-10T21:24:36.136Z,21.9
2017-10-10T21:26:36.333Z,22.4
2017-10-10T21:28:36.460Z,21.9
2017-10-10T21:30:36.624Z,21.9
2017-10-10T21:32:36.701Z,21.9
2017-10-10T21:34:36.832Z,21.9
2017-10-10T21:36:36.948Z,21.9
2017-10-10T21:38:37.063Z,22.4
2017-10-10T21:40:37.188Z,21.9
2017-10-10T21:42:37.324Z,21.299999999999997
2017-10-10T21:44:37.463Z,21.9
2017-10-10T21:46:37.645Z,22.4
2017-10-10T21:48:37.671Z,21.9
2017-10-10T21:50:37.871Z,21.9
2017-10-10T21:52:37.979Z,21.9
2017-10-10T21:54:38.071Z,21.9
2017-10-10T21:56:38.214Z,21.9
2017-10-10T21:58:38.304Z,21.9
2017-10-10T22:00:38.487Z,21.299999999999997
2017-10-10T22:02:38.570Z,21.9
2017-10-10T22:04:38.850Z,21.9
2017-10-10T22:06:38.933Z,21.9
2017-10-10T22:08:39.057Z,22.4
2017-10-10T22:10:39.291Z,21.9
2017-10-10T22:12:39.500Z,21.9
2017-10-10T22:14:39.695Z,21.9
2017-10-10T22:16:39.819Z,22.4
2017-10-10T22:18:39.952Z,21.299999999999997
2017-10-10T22:20:40.124Z,21.9
2017-10-10T22:22:40.218Z,21.9
2017-10-10T22:24:40.325Z,22.4
2017-10-10T22:26:40.511Z,21.299999999999997
2017-10-10T22:28:40.596Z,21.9
2017-10-10T22:30:40.739Z,22.4
2017-10-10T22:32:40.858Z,21.9
2017-10-10T22:34:41.011Z,21.9
2017-10-10T22:36:41.131Z,21.9
2017-10-10T22:38:41.229Z,21.9
2017-10-10T22:40:41.478Z,22.4
2017-10-10T22:42:41.527Z,21.9
2017-10-10T22:44:41.685Z,21.9
2017-10-10T22:46:42.065Z,21.9
2017-10-10T22:48:42.164Z,21.9
2017-10-10T22:50:42.311Z,21.9
2017-10-10T22:52:42.606Z,21.9
2017-10-10T22:54:42.813Z,21.9
2017-10-10T22:56:43.103Z,21.9
2017-10-10T22:58:43.311Z,21.9
2017-10-10T23:00:43.461Z,20.799999999999997
2017-10-10T23:02:43.688Z,21.9
2017-10-10T23:04:43.708Z,21.9
2017-10-10T23:06:43.835Z,21.9